createdAt,value
2023-05-16T00:01:37.907Z,97668.19
2023-05-16T00:04:06.735Z,97672.47
2023-05-16T00:06:36.590Z,97670.28
2023-05-16T00:09:04.869Z,97675.16
2023-05-16T00:15:36.006Z,97677.44
2023-05-16T00:18:04.088Z,97673.88
2023-05-16T00:20:32.192Z,97688.81
2023-05-16T00:23:01.958Z,97688.97
2023-05-16T00:25:29.997Z,97695.66
2023-05-16T00:27:58.458Z,97704.91
2023-05-16T00:30:26.560Z,97706.28
2023-05-16T00:32:55.851Z,97711.16
2023-05-16T00:35:24.961Z,97703.66
2023-05-16T00:37:53.005Z,97698.34
2023-05-16T00:40:24.540Z,97703.28
2023-05-16T00:42:52.750Z,97707.88
2023-05-16T00:45:20.940Z,97703.75
2023-05-16T00:47:49.333Z,97711.84
2023-05-16T00:50:18.123Z,97702.31
2023-05-16T00:52:46.598Z,97711.66
2023-05-16T00:55:15.798Z,97715.66
2023-05-16T00:57:45.352Z,97712.31
2023-05-16T01:00:16.002Z,97712.44
2023-05-16T01:02:44.903Z,97722.69
2023-05-16T01:05:13.215Z,97728.50
2023-05-16T01:07:41.285Z,97734.16
2023-05-16T01:10:10.641Z,97724.94
2023-05-16T01:12:43.058Z,97710.88
2023-05-16T01:15:15.185Z,97710.88
2023-05-16T01:17:54.540Z,97715.09
2023-05-16T01:20:34.820Z,97706.88
2023-05-16T01:23:22.020Z,97713.06
2023-05-16T01:25:59.286Z,97720.84
2023-05-16T01:28:29.992Z,97719.97
2023-05-16T01:30:58.107Z,97724.75
2023-05-16T01:33:26.111Z,97720.75
2023-05-16T01:36:00.859Z,97713.25
2023-05-16T01:38:38.813Z,97716.88
2023-05-16T01:41:14.257Z,97711.41
2023-05-16T01:43:46.501Z,97711.06
2023-05-16T01:46:17.715Z,97712.66
2023-05-16T01:48:52.664Z,97715.19
2023-05-16T01:51:24.164Z,97707.72
2023-05-16T01:53:54.358Z,97710.53
2023-05-16T01:56:23.007Z,97709.47
2023-05-16T01:58:54.485Z,97706.88
2023-05-16T02:01:22.577Z,97715.22
2023-05-16T02:03:51.258Z,97701.50
2023-05-16T02:06:19.312Z,97705.09
2023-05-16T02:08:47.326Z,97714.53
2023-05-16T02:11:18.874Z,97705.09
2023-05-16T02:13:47.132Z,97712.31
2023-05-16T02:16:16.700Z,97723.91
2023-05-16T02:18:46.067Z,97718.41
2023-05-16T02:21:14.199Z,97718.84
2023-05-16T02:23:42.185Z,97726.13
2023-05-16T02:26:10.233Z,97725.91
2023-05-16T02:28:38.300Z,97721.78
2023-05-16T02:31:06.538Z,97721.34
2023-05-16T02:33:36.010Z,97723.94
2023-05-16T02:36:04.394Z,97723.25
2023-05-16T02:38:32.373Z,97720.28
2023-05-16T02:41:00.424Z,97731.41
2023-05-16T02:43:28.373Z,97732.28
2023-05-16T02:45:56.516Z,97726.91
2023-05-16T02:48:24.479Z,97725.63
2023-05-16T02:50:53.872Z,97722.34
2023-05-16T02:53:21.888Z,97728.00
2023-05-16T02:55:49.882Z,97732.19
2023-05-16T02:58:17.859Z,97730.47
2023-05-16T03:00:46.009Z,97738.00
2023-05-16T03:03:14.084Z,97753.78
2023-05-16T03:05:42.417Z,97747.41
2023-05-16T03:08:11.887Z,97745.19
2023-05-16T03:10:39.859Z,97739.94
2023-05-16T03:13:08.156Z,97728.28
2023-05-16T03:15:36.160Z,97727.38
2023-05-16T03:18:04.465Z,97722.34
2023-05-16T03:20:32.558Z,97732.41
2023-05-16T03:23:00.547Z,97732.31
2023-05-16T03:25:29.982Z,97730.13
2023-05-16T03:27:57.971Z,97732.22
2023-05-16T03:30:26.362Z,97738.53
2023-05-16T03:32:54.634Z,97731.81
2023-05-16T03:35:22.842Z,97727.22
2023-05-16T03:37:50.907Z,97730.06
2023-05-16T03:40:19.987Z,97732.53
2023-05-16T03:42:49.367Z,97747.63
2023-05-16T03:45:17.560Z,97750.66
2023-05-16T03:47:45.669Z,97756.22
2023-05-16T03:50:13.697Z,97753.69
2023-05-16T03:52:41.709Z,97754.63
2023-05-16T03:55:09.936Z,97747.53
2023-05-16T03:57:39.288Z,97756.50
2023-05-16T04:00:11.162Z,97751.81
2023-05-16T04:02:43.030Z,97749.97
2023-05-16T04:05:12.543Z,97745.16
2023-05-16T04:07:40.799Z,97749.53
2023-05-16T04:10:10.394Z,97740.50
2023-05-16T04:12:38.733Z,97750.03
2023-05-16T04:15:09.293Z,97754.66
2023-05-16T04:17:37.567Z,97764.56
2023-05-16T04:20:07.113Z,97761.53
2023-05-16T04:22:35.119Z,97766.81
2023-05-16T04:25:03.380Z,97766.81
2023-05-16T04:27:31.841Z,97756.06
2023-05-16T04:30:00.473Z,97746.75
2023-05-16T04:32:30.267Z,97758.78
2023-05-16T04:34:58.335Z,97763.13
2023-05-16T04:37:26.791Z,97768.31
2023-05-16T04:39:55.417Z,97769.25
2023-05-16T04:42:24.272Z,97784.25
2023-05-16T04:45:05.006Z,97790.78
2023-05-16T04:47:39.267Z,97788.59
2023-05-16T04:50:09.802Z,97787.38
2023-05-16T04:52:38.284Z,97803.16
2023-05-16T04:55:07.231Z,97801.03
2023-05-16T04:57:35.295Z,97797.06
2023-05-16T05:00:07.101Z,97806.63
2023-05-16T05:02:35.317Z,97803.56
2023-05-16T05:05:12.606Z,97806.28
2023-05-16T05:07:42.965Z,97807.94
2023-05-16T05:10:12.278Z,97800.22
2023-05-16T05:12:40.493Z,97797.97
2023-05-16T05:15:09.316Z,97807.78
2023-05-16T05:17:38.942Z,97808.38
2023-05-16T05:20:10.626Z,97802.75
2023-05-16T05:22:38.784Z,97797.44
2023-05-16T05:25:07.770Z,97797.72
2023-05-16T05:27:35.799Z,97803.00
2023-05-16T05:30:03.959Z,97814.16
2023-05-16T05:32:32.255Z,97802.44
2023-05-16T05:35:00.349Z,97808.31
2023-05-16T05:37:30.165Z,97811.88
2023-05-16T05:39:58.173Z,97812.50
2023-05-16T05:42:26.415Z,97821.19
2023-05-16T05:44:55.129Z,97820.75
2023-05-16T05:47:23.196Z,97816.81
2023-05-16T05:49:51.833Z,97819.63
2023-05-16T05:52:20.152Z,97819.47
2023-05-16T05:54:50.333Z,97815.72
2023-05-16T05:57:18.347Z,97825.28
2023-05-16T05:59:46.968Z,97830.56
2023-05-16T06:02:15.349Z,97820.28
2023-05-16T06:04:43.417Z,97824.72
2023-05-16T06:07:11.471Z,97819.41
2023-05-16T06:09:39.543Z,97813.41
2023-05-16T06:12:09.779Z,97813.59
2023-05-16T06:14:37.917Z,97817.41
2023-05-16T06:17:06.192Z,97806.84
2023-05-16T06:19:34.304Z,97817.16
2023-05-16T06:22:02.523Z,97817.47
2023-05-16T06:24:30.745Z,97828.75
2023-05-16T06:26:58.736Z,97827.88
2023-05-16T06:29:28.169Z,97833.28
2023-05-16T06:31:56.249Z,97830.75
2023-05-16T06:34:28.173Z,97834.94
2023-05-16T06:36:56.489Z,97827.88
2023-05-16T06:39:24.533Z,97838.28
2023-05-16T06:41:56.235Z,97831.16
2023-05-16T06:44:25.054Z,97832.50
2023-05-16T06:46:54.716Z,97826.47
2023-05-16T06:49:22.831Z,97822.63
2023-05-16T06:51:51.021Z,97838.72
2023-05-16T06:54:19.161Z,97829.66
2023-05-16T06:56:47.232Z,97830.91
2023-05-16T06:59:15.278Z,97828.13
2023-05-16T07:01:43.550Z,97840.34
2023-05-16T07:04:13.304Z,97840.28
2023-05-16T07:06:41.724Z,97836.28
2023-05-16T07:09:09.814Z,97841.00
2023-05-16T07:11:37.853Z,97845.34
2023-05-16T07:14:05.932Z,97848.47
2023-05-16T07:16:34.139Z,97844.19
2023-05-16T07:19:02.289Z,97858.19
2023-05-16T07:21:31.765Z,97860.00
2023-05-16T07:23:59.887Z,97859.31
2023-05-16T07:26:28.041Z,97856.53
2023-05-16T07:28:56.119Z,97855.78
2023-05-16T07:31:24.359Z,97860.09
2023-05-16T07:33:52.572Z,97875.56
2023-05-16T07:36:21.349Z,97870.28
2023-05-16T07:38:50.931Z,97868.72
2023-05-16T07:41:19.080Z,97872.72
2023-05-16T07:43:47.166Z,97866.31
2023-05-16T07:46:15.440Z,97864.50
2023-05-16T07:48:43.915Z,97862.56
2023-05-16T07:51:11.941Z,97873.81
2023-05-16T07:53:39.998Z,97872.13
2023-05-16T07:56:10.044Z,97872.38
2023-05-16T07:58:40.024Z,97868.28
2023-05-16T08:01:08.238Z,97879.47
2023-05-16T08:03:37.302Z,97875.94
2023-05-16T08:06:05.917Z,97890.91
2023-05-16T08:08:34.124Z,97904.78
2023-05-16T08:11:02.295Z,97909.59
2023-05-16T08:13:31.839Z,97898.53
2023-05-16T08:16:00.046Z,97891.72
2023-05-16T08:18:28.178Z,97887.53
2023-05-16T08:20:56.219Z,97892.44
2023-05-16T08:23:24.340Z,97885.06
2023-05-16T08:25:54.734Z,97879.41
2023-05-16T08:28:22.936Z,97873.22
2023-05-16T08:30:52.579Z,97872.91
2023-05-16T08:33:20.779Z,97879.25
2023-05-16T08:35:49.955Z,97888.47
2023-05-16T08:38:18.094Z,97898.59
2023-05-16T08:40:46.282Z,97899.13
2023-05-16T08:43:14.984Z,97897.44
2023-05-16T08:45:43.154Z,97896.72
2023-05-16T08:48:12.836Z,97898.50
2023-05-16T08:50:42.855Z,97901.72
2023-05-16T08:53:13.163Z,97900.22
2023-05-16T08:55:42.910Z,97887.59
2023-05-16T08:58:12.130Z,97901.81
2023-05-16T09:00:41.342Z,97891.31
2023-05-16T09:03:09.528Z,97892.78
2023-05-16T09:05:39.761Z,97888.34
2023-05-16T09:08:07.900Z,97892.13
2023-05-16T09:10:36.117Z,97891.00
2023-05-16T09:13:04.473Z,97896.66
2023-05-16T09:15:33.665Z,97887.84
2023-05-16T09:18:02.746Z,97897.41
2023-05-16T09:20:31.380Z,97892.09
2023-05-16T09:23:01.525Z,97895.09
2023-05-16T09:25:32.484Z,97905.69
2023-05-16T09:28:03.129Z,97901.09
2023-05-16T09:30:33.989Z,97904.25
2023-05-16T09:33:02.940Z,97905.56
2023-05-16T09:35:43.793Z,97900.22
2023-05-16T09:38:17.260Z,97894.97
2023-05-16T09:40:46.344Z,97897.75
2023-05-16T09:43:17.692Z,97891.59
2023-05-16T09:45:48.965Z,97889.97
2023-05-16T09:48:18.341Z,97893.19
2023-05-16T09:50:53.062Z,97899.63
2023-05-16T09:53:28.761Z,97897.31
2023-05-16T09:56:07.960Z,97880.88
2023-05-16T09:58:38.389Z,97888.69
2023-05-16T10:01:07.887Z,97883.97
2023-05-16T10:03:37.348Z,97881.09
2023-05-16T10:06:06.855Z,97875.47
2023-05-16T10:08:37.901Z,97870.50
2023-05-16T10:11:07.396Z,97876.06
2023-05-16T10:13:37.800Z,97876.13
2023-05-16T10:16:11.455Z,97862.47
2023-05-16T10:18:41.208Z,97857.94
2023-05-16T10:21:12.137Z,97867.56
2023-05-16T10:23:43.896Z,97864.31
2023-05-16T10:26:14.741Z,97856.13
2023-05-16T10:28:43.617Z,97857.25
2023-05-16T10:31:12.654Z,97858.28
2023-05-16T10:33:41.389Z,97860.94
2023-05-16T10:36:11.112Z,97860.75
2023-05-16T10:38:40.531Z,97857.34
2023-05-16T10:41:10.678Z,97856.72
2023-05-16T10:43:38.916Z,97860.38
2023-05-16T10:46:09.747Z,97853.28
2023-05-16T10:48:39.862Z,97841.66
2023-05-16T10:51:35.273Z,97852.56
2023-05-16T10:54:07.712Z,97836.25
2023-05-16T10:56:37.767Z,97855.03
2023-05-16T10:59:06.024Z,97858.91
2023-05-16T11:01:34.960Z,97858.31
2023-05-16T11:04:05.814Z,97857.72
2023-05-16T11:06:34.907Z,97847.63
2023-05-16T11:09:07.292Z,97847.59
2023-05-16T11:11:48.957Z,97845.38
2023-05-16T11:14:23.367Z,97850.28
2023-05-16T11:16:52.714Z,97853.31
2023-05-16T11:19:32.171Z,97853.50
2023-05-16T11:22:07.614Z,97858.28
2023-05-16T11:24:37.176Z,97855.59
2023-05-16T11:27:07.650Z,97865.06
2023-05-16T11:29:37.505Z,97857.97
2023-05-16T11:32:06.680Z,97859.63
2023-05-16T11:34:38.970Z,97860.66
2023-05-16T11:37:07.655Z,97850.88
2023-05-16T11:39:35.811Z,97859.72
2023-05-16T11:42:03.843Z,97850.41
2023-05-16T11:44:33.417Z,97847.81
2023-05-16T11:47:02.564Z,97859.47
2023-05-16T11:49:31.235Z,97854.75
2023-05-16T11:51:59.367Z,97850.06
2023-05-16T11:54:27.749Z,97857.38
2023-05-16T11:56:56.162Z,97868.00
2023-05-16T11:59:24.457Z,97874.13
2023-05-16T12:01:53.910Z,97867.31
2023-05-16T12:04:23.313Z,97873.63
2023-05-16T12:07:03.151Z,97871.56
2023-05-16T12:09:31.578Z,97882.13
2023-05-16T12:11:59.765Z,97871.69
2023-05-16T12:14:28.091Z,97874.94
2023-05-16T12:16:58.216Z,97876.06
2023-05-16T12:19:26.981Z,97874.41
2023-05-16T12:21:55.520Z,97873.81
2023-05-16T12:24:30.638Z,97879.50
2023-05-16T12:26:59.072Z,97871.44
2023-05-16T12:29:27.156Z,97876.22
2023-05-16T12:31:55.331Z,97880.53
2023-05-16T12:34:25.038Z,97880.97
2023-05-16T12:36:54.613Z,97872.50
2023-05-16T12:39:23.616Z,97873.69
2023-05-16T12:41:51.775Z,97868.72
2023-05-16T12:44:23.175Z,97870.25
2023-05-16T12:46:52.853Z,97883.38
2023-05-16T12:49:22.547Z,97871.91
2023-05-16T12:51:53.366Z,97866.44
2023-05-16T12:54:23.023Z,97871.91
2023-05-16T12:56:51.545Z,97867.31
2023-05-16T12:59:20.417Z,97862.69
2023-05-16T13:01:48.788Z,97864.53
2023-05-16T13:04:20.156Z,97859.50
2023-05-16T13:06:59.333Z,97862.94
2023-05-16T13:09:32.855Z,97860.31
2023-05-16T13:12:01.589Z,97860.84
2023-05-16T13:14:29.720Z,97862.56
2023-05-16T13:16:57.858Z,97866.72
2023-05-16T13:19:26.309Z,97867.97
2023-05-16T13:21:54.476Z,97860.69
2023-05-16T13:24:22.638Z,97859.72
2023-05-16T13:26:52.197Z,97860.25
2023-05-16T13:29:20.470Z,97859.84
2023-05-16T13:31:48.591Z,97853.91
2023-05-16T13:34:16.732Z,97856.34
2023-05-16T13:39:18.162Z,97850.31
2023-05-16T13:41:48.683Z,97853.97
2023-05-16T13:44:18.675Z,97848.34
2023-05-16T13:46:47.086Z,97846.84
2023-05-16T13:49:15.234Z,97845.22
2023-05-16T13:51:43.307Z,97838.25
2023-05-16T13:54:11.355Z,97822.31
2023-05-16T13:56:39.452Z,97827.72
2023-05-16T13:59:07.897Z,97830.38
2023-05-16T14:01:38.347Z,97833.84
2023-05-16T14:04:06.895Z,97822.81
2023-05-16T14:06:34.962Z,97832.66
2023-05-16T14:09:03.409Z,97832.91
2023-05-16T14:11:31.711Z,97830.63
2023-05-16T14:13:59.816Z,97825.31
2023-05-16T14:16:28.276Z,97830.34
2023-05-16T14:18:58.116Z,97822.22
2023-05-16T14:21:26.784Z,97823.97
2023-05-16T14:23:54.982Z,97826.94
2023-05-16T14:26:25.558Z,97819.81
2023-05-16T14:28:53.781Z,97822.47
2023-05-16T14:31:21.983Z,97821.06
2023-05-16T14:33:50.539Z,97813.91
2023-05-16T14:36:20.197Z,97812.50
2023-05-16T14:38:49.589Z,97817.94
2023-05-16T14:41:17.666Z,97815.41
2023-05-16T14:43:46.178Z,97819.13
2023-05-16T14:46:14.410Z,97811.72
2023-05-16T14:48:42.518Z,97813.06
2023-05-16T14:51:12.067Z,97813.25
2023-05-16T14:53:41.649Z,97820.28
2023-05-16T14:56:09.727Z,97819.34
2023-05-16T14:58:37.853Z,97816.72
2023-05-16T15:01:06.082Z,97812.97
2023-05-16T15:03:46.929Z,97818.69
2023-05-16T15:06:19.254Z,97822.41
2023-05-16T15:08:48.745Z,97820.81
2023-05-16T15:11:16.820Z,97820.22
2023-05-16T15:13:44.906Z,97824.25
2023-05-16T15:16:13.288Z,97827.13
2023-05-16T15:18:41.818Z,97823.56
2023-05-16T15:21:10.137Z,97827.81
2023-05-16T15:23:38.352Z,97822.25
2023-05-16T15:26:08.058Z,97816.63
2023-05-16T15:28:36.192Z,97815.94
2023-05-16T15:31:04.734Z,97822.09
2023-05-16T15:33:32.824Z,97829.38
2023-05-16T15:36:01.703Z,97818.84
2023-05-16T15:38:29.851Z,97815.03
2023-05-16T15:41:13.583Z,97802.94
2023-05-16T15:43:47.360Z,97798.34
2023-05-16T15:46:15.654Z,97795.94
2023-05-16T15:48:45.034Z,97802.63
2023-05-16T15:51:13.976Z,97804.66
2023-05-16T15:53:42.078Z,97811.44
2023-05-16T15:56:10.879Z,97807.53
2023-05-16T15:58:38.920Z,97807.19
2023-05-16T16:01:08.510Z,97806.81
2023-05-16T16:03:36.770Z,97810.28
2023-05-16T16:06:06.251Z,97809.00
2023-05-16T16:08:34.343Z,97810.31
2023-05-16T16:11:02.868Z,97815.72
2023-05-16T16:13:31.143Z,97816.25
2023-05-16T16:15:59.339Z,97813.44
2023-05-16T16:18:28.898Z,97813.97
2023-05-16T16:20:56.870Z,97819.09
2023-05-16T16:23:24.992Z,97819.84
2023-05-16T16:25:53.211Z,97813.50
2023-05-16T16:28:22.586Z,97825.84
2023-05-16T16:30:51.386Z,97823.94
2023-05-16T16:33:19.750Z,97817.81
2023-05-16T16:35:49.184Z,97829.19
2023-05-16T16:38:17.664Z,97825.81
2023-05-16T16:40:45.909Z,97827.69
2023-05-16T16:43:14.877Z,97826.38
2023-05-16T16:45:42.945Z,97820.22
2023-05-16T16:48:11.661Z,97827.31
2023-05-16T16:50:40.222Z,97827.88
2023-05-16T16:53:09.972Z,97815.00
2023-05-16T16:55:40.711Z,97823.41
2023-05-16T16:58:09.190Z,97823.72
2023-05-16T17:00:37.282Z,97817.59
2023-05-16T17:03:05.555Z,97824.66
2023-05-16T17:05:33.831Z,97819.19
2023-05-16T17:08:02.018Z,97815.53
2023-05-16T17:10:31.804Z,97816.84
2023-05-16T17:13:07.115Z,97810.56
2023-05-16T17:15:35.230Z,97813.97
2023-05-16T17:18:04.742Z,97816.91
2023-05-16T17:20:32.839Z,97820.25
2023-05-16T17:23:01.134Z,97809.81
2023-05-16T17:25:29.950Z,97818.94
2023-05-16T17:27:59.746Z,97814.44
2023-05-16T17:30:27.967Z,97808.31
2023-05-16T17:32:56.035Z,97814.66
2023-05-16T17:35:24.161Z,97810.78
2023-05-16T17:37:52.440Z,97814.78
2023-05-16T17:40:20.814Z,97812.88
2023-05-16T17:42:49.015Z,97814.19
2023-05-16T17:45:19.287Z,97810.78
2023-05-16T17:47:47.441Z,97815.44
2023-05-16T17:50:15.809Z,97813.97
2023-05-16T17:52:44.248Z,97811.59
2023-05-16T17:55:12.648Z,97815.84
2023-05-16T17:57:40.955Z,97812.34
2023-05-16T18:00:10.482Z,97809.25
2023-05-16T18:02:41.217Z,97811.63
2023-05-16T18:05:10.393Z,97812.59
2023-05-16T18:07:38.802Z,97806.59
2023-05-16T18:10:07.928Z,97810.38
2023-05-16T18:12:37.997Z,97808.81
2023-05-16T18:15:07.084Z,97805.22
2023-05-16T18:17:35.421Z,97804.97
2023-05-16T18:20:12.639Z,97808.00
2023-05-16T18:22:41.381Z,97812.31
2023-05-16T18:25:11.505Z,97812.53
2023-05-16T18:27:39.642Z,97809.69
2023-05-16T18:30:09.011Z,97816.63
2023-05-16T18:32:37.296Z,97815.56
2023-05-16T18:35:07.762Z,97814.56
2023-05-16T18:37:36.643Z,97827.03
2023-05-16T18:40:05.840Z,97826.53
2023-05-16T18:42:34.321Z,97817.06
2023-05-16T18:45:03.503Z,97830.88
2023-05-16T18:47:31.786Z,97831.59
2023-05-16T18:49:59.973Z,97820.66
2023-05-16T18:52:29.626Z,97824.09
2023-05-16T18:54:58.773Z,97825.53
2023-05-16T18:57:26.928Z,97831.13
2023-05-16T18:59:56.571Z,97826.00
2023-05-16T19:02:37.877Z,97825.53
2023-05-16T19:05:10.713Z,97825.69
2023-05-16T19:07:40.880Z,97825.47
2023-05-16T19:10:10.113Z,97829.81
2023-05-16T19:12:38.636Z,97832.38
2023-05-16T19:15:08.092Z,97827.78
2023-05-16T19:17:36.327Z,97835.06
2023-05-16T19:20:05.098Z,97824.25
2023-05-16T19:22:33.740Z,97819.22
2023-05-16T19:25:03.293Z,97825.84
2023-05-16T19:27:31.701Z,97826.59
2023-05-16T19:29:59.782Z,97818.00
2023-05-16T19:32:27.891Z,97828.84
2023-05-16T19:34:56.710Z,97824.72
2023-05-16T19:37:24.850Z,97826.06
2023-05-16T19:39:52.897Z,97818.31
2023-05-16T19:42:22.381Z,97826.69
2023-05-16T19:44:50.510Z,97820.69
2023-05-16T19:47:18.612Z,97824.94
2023-05-16T19:49:46.740Z,97833.16
2023-05-16T19:52:14.908Z,97826.94
2023-05-16T19:54:42.933Z,97834.13
2023-05-16T19:57:11.028Z,97837.13
2023-05-16T19:59:40.534Z,97826.25
2023-05-16T20:02:08.716Z,97831.69
2023-05-16T20:04:36.748Z,97832.56
2023-05-16T20:07:04.903Z,97817.25
2023-05-16T20:09:33.105Z,97828.91
2023-05-16T20:12:01.458Z,97829.31
2023-05-16T20:14:29.597Z,97825.25
2023-05-16T20:16:59.734Z,97814.50
2023-05-16T20:19:29.117Z,97809.06
2023-05-16T20:21:57.288Z,97806.44
2023-05-16T20:24:25.485Z,97794.78
2023-05-16T20:26:54.469Z,97795.09
2023-05-16T20:29:22.509Z,97800.53
2023-05-16T20:31:50.524Z,97786.44
2023-05-16T20:34:19.983Z,97803.78
2023-05-16T20:36:48.123Z,97803.44
2023-05-16T20:39:16.198Z,97795.09
2023-05-16T20:41:44.273Z,97782.31
2023-05-16T20:44:12.387Z,97784.72
2023-05-16T20:46:42.068Z,97782.91
2023-05-16T20:49:10.168Z,97788.22
2023-05-16T20:51:39.624Z,97790.78
2023-05-16T20:54:07.825Z,97784.47
2023-05-16T20:56:35.911Z,97790.75
2023-05-16T20:59:03.980Z,97785.91
2023-05-16T21:01:32.786Z,97774.94
2023-05-16T21:04:01.772Z,97779.28
2023-05-16T21:06:29.885Z,97780.34
2023-05-16T21:08:59.388Z,97777.19
2023-05-16T21:11:28.671Z,97769.44
2023-05-16T21:13:56.688Z,97779.69
2023-05-16T21:16:25.054Z,97780.25
2023-05-16T21:18:53.468Z,97765.31
2023-05-16T21:21:21.733Z,97753.50
2023-05-16T21:23:49.927Z,97761.94
2023-05-16T21:26:19.476Z,97756.69
2023-05-16T21:28:55.002Z,97756.91
2023-05-16T21:31:23.820Z,97749.19
2023-05-16T21:33:52.735Z,97750.19
2023-05-16T21:36:21.028Z,97748.91
2023-05-16T21:38:49.065Z,97736.53
2023-05-16T21:41:18.266Z,97722.31
2023-05-16T21:43:47.759Z,97737.78
2023-05-16T21:46:15.910Z,97739.16
2023-05-16T21:48:44.051Z,97737.06
2023-05-16T21:51:12.207Z,97730.13
2023-05-16T21:53:40.268Z,97737.34
2023-05-16T21:56:08.712Z,97730.06
2023-05-16T21:58:36.849Z,97728.34
2023-05-16T22:01:06.606Z,97720.63
2023-05-16T22:03:34.943Z,97725.66
2023-05-16T22:06:03.233Z,97718.78
2023-05-16T22:08:31.380Z,97725.25
2023-05-16T22:10:59.533Z,97720.00
2023-05-16T22:13:27.611Z,97714.72
2023-05-16T22:16:04.009Z,97723.41
2023-05-16T22:18:34.741Z,97728.44
2023-05-16T22:21:03.001Z,97723.47
2023-05-16T22:23:31.095Z,97712.47
2023-05-16T22:25:59.247Z,97728.69
2023-05-16T22:28:27.366Z,97723.53
2023-05-16T22:30:55.526Z,97709.97
2023-05-16T22:33:24.191Z,97718.81
2023-05-16T22:35:54.062Z,97709.63
2023-05-16T22:38:22.312Z,97707.28
2023-05-16T22:40:50.358Z,97709.72
2023-05-16T22:43:18.483Z,97708.06
2023-05-16T22:45:46.687Z,97722.97
2023-05-16T22:48:14.822Z,97716.94
2023-05-16T22:50:42.936Z,97713.81
2023-05-16T22:53:12.410Z,97713.94
2023-05-16T22:55:40.404Z,97718.81
2023-05-16T22:58:08.452Z,97708.41
2023-05-16T23:00:36.581Z,97712.19
2023-05-16T23:03:04.769Z,97720.16
2023-05-16T23:05:32.875Z,97705.53
2023-05-16T23:08:00.900Z,97715.84
2023-05-16T23:10:30.592Z,97714.13
2023-05-16T23:12:58.742Z,97712.09
2023-05-16T23:15:26.990Z,97712.94
2023-05-16T23:17:55.636Z,97707.47
2023-05-16T23:20:23.864Z,97715.69
2023-05-16T23:22:51.866Z,97722.09
2023-05-16T23:25:20.034Z,97721.00
2023-05-16T23:27:49.438Z,97710.50
2023-05-16T23:30:17.669Z,97713.75
2023-05-16T23:32:45.761Z,97694.13
2023-05-16T23:35:13.873Z,97697.41
2023-05-16T23:37:41.962Z,97697.75
2023-05-16T23:40:11.020Z,97695.38
2023-05-16T23:42:40.853Z,97698.03
2023-05-16T23:45:11.378Z,97682.38
2023-05-16T23:47:39.802Z,97687.47
2023-05-16T23:50:08.745Z,97684.00
2023-05-16T23:52:36.943Z,97692.75
2023-05-16T23:55:05.608Z,97714.28
2023-05-16T23:57:33.800Z,97704.78
